Time;durP1;ratioP1;P1;durP2;ratioP2;P2;SDS_P1;SDS_P2;PMS_P1;PMS_P2;Temp;Humidity;BMP_temperature;BMP_pressure;BME280_temperature;BME280_humidity;BME280_pressure;Samples;Min_cycle;Max_cycle;Signal;HPM_P1;HPM_P2
2023/10/14 00:02:32;;;;;;;;;;;;;;;;;;6175915;23;19928;-88
2023/10/14 00:04:58;;;;;;;;;;;;;;;;;;6171964;23;19927;-88
2023/10/14 00:07:26;;;;;;;;;;;;;;;;;;6178766;23;19970;-88
2023/10/14 00:09:57;;;;;;;;;;;;;;;;;;6152699;23;19920;-88
2023/10/14 00:12:28;;;;;;;;;;;;;;;;;;6174626;23;19920;-88
2023/10/14 00:15:03;;;;;;;;;;;;;;;;;;6197448;23;19916;-88
2023/10/14 00:17:35;;;;;;;;;;;;;;;;;;6173996;23;19924;-88
2023/10/14 00:20:00;;;;;;;;;;;;;;;;;;6147187;23;19959;-87
2023/10/14 00:22:29;;;;;;;;;;;;;;;;;;6175374;23;19935;-87
2023/10/14 00:24:58;;;;;;;;;;;;;;;;;;6173916;23;19920;-88
2023/10/14 00:27:28;;;;;;;;;;;;;;;;;;6175721;23;20333;-88
2023/10/14 00:30:31;;;;;;;;;;;;;;;;;;6148551;23;20019;-88
2023/10/14 00:32:58;;;;;;;;;;;;;;;;;;6172325;23;20034;-88
2023/10/14 00:35:26;;;;;;;;;;;;;;;;;;6148808;23;19931;-88
2023/10/14 00:37:55;;;;;;;;;;;;;;;;;;6148143;23;19998;-88
2023/10/14 00:40:31;;;;;;;;;;;;;;;;;;6174029;23;19923;-89
2023/10/14 00:43:11;;;;;;;;;;;;;;;;;;6176856;23;19934;-88
2023/10/14 00:45:44;;;;;;;;;;;;;;;;;;6176898;23;19958;-87
2023/10/14 00:48:27;;;;;;;;;;;;;;;;;;6173584;23;19923;-89
2023/10/14 00:50:58;;;;;;;;;;;;;;;;;;6199287;23;19927;-88
2023/10/14 00:53:28;;;;;;;;;;;;;;;;;;6168558;23;20237;-89
2023/10/14 00:56:02;;;;;;;;;;;;;;;;;;6174854;23;19916;-89
2023/10/14 00:58:39;;;;;;;;;;;;;;;;;;6178007;23;20638;-88
2023/10/14 01:01:10;;;;;;;;;;;;;;;;;;6204634;23;20004;-88
2023/10/14 01:03:39;;;;;;;;;;;;;;;;;;6176025;23;19955;-88
2023/10/14 01:06:34;;;;;;;;;;;;;;;;;;6176710;23;19919;-88
2023/10/14 01:09:16;;;;;;;;;;;;;;;;;;6177106;23;19916;-88
2023/10/14 01:11:52;;;;;;;;;;;;;;;;;;6172732;23;19970;-88
2023/10/14 01:14:23;;;;;;;;;;;;;;;;;;6178053;23;19924;-88
2023/10/14 01:16:57;;;;;;;;;;;;;;;;;;6174382;23;20080;-88
2023/10/14 01:19:33;;;;;;;;;;;;;;;;;;6177313;23;20288;-88
2023/10/14 01:22:03;;;;;;;;;;;;;;;;;;6204888;23;19920;-88
2023/10/14 01:24:39;;;;;;;;;;;;;;;;;;6177026;23;20334;-88
2023/10/14 01:27:10;;;;;;;;;;;;;;;;;;6175841;23;19977;-89
2023/10/14 01:29:41;;;;;;;;;;;;;;;;;;6174238;23;20326;-88
2023/10/14 01:32:23;;;;;;;;;;;;;;;;;;6177279;23;19974;-88
2023/10/14 01:34:55;;;;;;;;;;;;;;;;;;6172504;23;20253;-88
2023/10/14 01:37:21;;;;;;;;;;;;;;;;;;6175646;23;19947;-88
2023/10/14 01:39:50;;;;;;;;;;;;;;;;;;6174951;23;19920;-88
2023/10/14 01:42:19;;;;;;;;;;;;;;;;;;6151555;23;19923;-88
2023/10/14 01:44:53;;;;;;;;;;;;;;;;;;6194386;23;19946;-88
2023/10/14 01:47:25;;;;;;;;;;;;;;;;;;6176171;23;19986;-88
2023/10/14 01:49:53;;;;;;;;;;;;;;;;;;6173450;23;19926;-88
2023/10/14 01:52:19;;;;;;;;;;;;;;;;;;6152542;23;19924;-88
2023/10/14 01:54:48;;;;;;;;;;;;;;;;;;6174621;23;20318;-88
2023/10/14 01:57:33;;;;;;;;;;;;;;;;;;6179472;23;19938;-88
2023/10/14 02:00:00;;;;;;;;;;;;;;;;;;6148841;23;19920;-88
2023/10/14 02:02:28;;;;;;;;;;;;;;;;;;6176072;23;19927;-88
2023/10/14 02:04:56;;;;;;;;;;;;;;;;;;6172774;23;20034;-88
2023/10/14 02:07:26;;;;;;;;;;;;;;;;;;6174624;23;19931;-89
2023/10/14 02:10:04;;;;;;;;;;;;;;;;;;6198659;23;19966;-88
2023/10/14 02:12:34;;;;;;;;;;;;;;;;;;6172283;23;19920;-88
2023/10/14 02:15:03;;;;;;;;;;;;;;;;;;6147256;23;19923;-89
2023/10/14 02:17:31;;;;;;;;;;;;;;;;;;6172756;23;19924;-89
2023/10/14 02:20:20;;;;;;;;;;;;;;;;;;6199731;23;19920;-88
2023/10/14 02:22:51;;;;;;;;;;;;;;;;;;6193090;23;19943;-88
2023/10/14 02:25:17;;;;;;;;;;;;;;;;;;6173394;23;19920;-88
2023/10/14 02:27:48;;;;;;;;;;;;;;;;;;6197920;23;19924;-88
2023/10/14 02:30:15;;;;;;;;;;;;;;;;;;6173913;23;19926;-87
2023/10/14 02:32:41;;;;;;;;;;;;;;;;;;6170223;23;19956;-88
2023/10/14 02:35:08;;;;;;;;;;;;;;;;;;6148715;23;19920;-88
2023/10/14 02:37:34;;;;;;;;;;;;;;;;;;6171004;23;19955;-88
2023/10/14 02:40:06;;;;;;;;;;;;;;;;;;6174660;23;19916;-88
2023/10/14 02:42:35;;;;;;;;;;;;;;;;;;6146147;23;19919;-88
2023/10/14 02:45:04;;;;;;;;;;;;;;;;;;6170108;23;19927;-89
2023/10/14 02:47:37;;;;;;;;;;;;;;;;;;6170708;23;19927;-89
2023/10/14 02:50:12;;;;;;;;;;;;;;;;;;6169750;23;19951;-88
2023/10/14 02:53:07;;;;;;;;;;;;;;;;;;6169379;23;20296;-89
2023/10/14 02:55:53;;;;;;;;;;;;;;;;;;6195298;23;19978;-88
2023/10/14 02:58:21;;;;;;;;;;;;;;;;;;6147003;23;19966;-88
2023/10/14 03:00:59;;;;;;;;;;;;;;;;;;6168393;23;19924;-88
2023/10/14 03:03:46;;;;;;;;;;;;;;;;;;6170029;23;19927;-88
2023/10/14 03:06:22;;;;;;;;;;;;;;;;;;6171175;23;20637;-88
2023/10/14 03:08:57;;;;;;;;;;;;;;;;;;6147450;23;19919;-88
2023/10/14 03:11:25;;;;;;;;;;;;;;;;;;6177762;23;19927;-88
2023/10/14 03:13:56;;;;;;;;;;;;;;;;;;6169712;23;19974;-87
2023/10/14 03:16:26;;;;;;;;;;;;;;;;;;6202803;23;19999;-88
2023/10/14 03:18:54;;;;;;;;;;;;;;;;;;6144747;23;19924;-88
2023/10/14 03:21:31;;;;;;;;;;;;;;;;;;6152091;23;20337;-87
2023/10/14 03:23:59;;;;;;;;;;;;;;;;;;6175153;23;19920;-87
2023/10/14 03:26:32;;;;;;;;;;;;;;;;;;6177443;23;19922;-88
2023/10/14 03:29:14;;;;;;;;;;;;;;;;;;6212660;23;20408;-87
2023/10/14 03:31:50;;;;;;;;;;;;;;;;;;6171332;23;20583;-87
2023/10/14 03:34:21;;;;;;;;;;;;;;;;;;6172675;23;19931;-87
2023/10/14 03:36:50;;;;;;;;;;;;;;;;;;6171752;23;19916;-87
2023/10/14 03:39:38;;;;;;;;;;;;;;;;;;6174714;23;20264;-87
2023/10/14 03:42:17;;;;;;;;;;;;;;;;;;6201028;23;20588;-87
2023/10/14 03:44:47;;;;;;;;;;;;;;;;;;6172474;23;19931;-87
2023/10/14 03:47:17;;;;;;;;;;;;;;;;;;6171755;23;20010;-87
2023/10/14 03:49:45;;;;;;;;;;;;;;;;;;6145430;23;19920;-88
2023/10/14 03:52:13;;;;;;;;;;;;;;;;;;6173063;23;19963;-88
2023/10/14 03:54:44;;;;;;;;;;;;;;;;;;6147239;23;19924;-88
2023/10/14 03:57:32;;;;;;;;;;;;;;;;;;6174943;23;19923;-87
2023/10/14 04:00:09;;;;;;;;;;;;;;;;;;6176154;23;19920;-87
2023/10/14 04:02:40;;;;;;;;;;;;;;;;;;6199225;23;19951;-88
2023/10/14 04:05:10;;;;;;;;;;;;;;;;;;6176811;23;19919;-87
2023/10/14 04:07:57;;;;;;;;;;;;;;;;;;6174441;23;19920;-88
2023/10/14 04:10:45;;;;;;;;;;;;;;;;;;6200403;23;20008;-88
2023/10/14 04:13:21;;;;;;;;;;;;;;;;;;6176704;23;19928;-87
2023/10/14 04:15:53;;;;;;;;;;;;;;;;;;6170010;23;19939;-88
2023/10/14 04:18:24;;;;;;;;;;;;;;;;;;6173741;23;19997;-88
2023/10/14 04:21:14;;;;;;;;;;;;;;;;;;6171250;23;19919;-87
2023/10/14 04:24:03;;;;;;;;;;;;;;;;;;6200431;23;19920;-87
2023/10/14 04:26:42;;;;;;;;;;;;;;;;;;6199726;23;19919;-87
2023/10/14 04:29:17;;;;;;;;;;;;;;;;;;6176177;23;19983;-88
2023/10/14 04:31:57;;;;;;;;;;;;;;;;;;6172251;23;19919;-87
2023/10/14 04:34:24;;;;;;;;;;;;;;;;;;6178252;23;19924;-87
2023/10/14 04:37:07;;;;;;;;;;;;;;;;;;6178351;23;20332;-87
2023/10/14 04:39:42;;;;;;;;;;;;;;;;;;6178108;23;20322;-87
2023/10/14 04:44:55;;;;;;;;;;;;;;;;;;6173018;23;19920;-87
2023/10/14 04:47:47;;;;;;;;;;;;;;;;;;6171504;23;19977;-87
2023/10/14 04:50:23;;;;;;;;;;;;;;;;;;6176209;23;19920;-87
2023/10/14 04:52:50;;;;;;;;;;;;;;;;;;6173469;23;19923;-87
2023/10/14 04:55:32;;;;;;;;;;;;;;;;;;6176922;23;19927;-87
2023/10/14 04:58:23;;;;;;;;;;;;;;;;;;6175239;23;19920;-87
2023/10/14 05:00:49;;;;;;;;;;;;;;;;;;6175226;23;19931;-87
2023/10/14 05:03:19;;;;;;;;;;;;;;;;;;6202928;23;19924;-87
2023/10/14 05:05:55;;;;;;;;;;;;;;;;;;6198068;23;19995;-87
2023/10/14 05:08:27;;;;;;;;;;;;;;;;;;6178634;23;19994;-87
2023/10/14 05:10:54;;;;;;;;;;;;;;;;;;6202759;23;19966;-87
2023/10/14 05:13:42;;;;;;;;;;;;;;;;;;6176815;23;19930;-88
2023/10/14 05:16:21;;;;;;;;;;;;;;;;;;6177852;23;19919;-88
2023/10/14 05:21:57;;;;;;;;;;;;;;;;;;6178250;23;19920;-88
2023/10/14 05:24:28;;;;;;;;;;;;;;;;;;6177157;23;20006;-88
2023/10/14 05:27:13;;;;;;;;;;;;;;;;;;6206157;23;19977;-87
2023/10/14 05:29:54;;;;;;;;;;;;;;;;;;6201811;23;19922;-87
2023/10/14 05:32:43;;;;;;;;;;;;;;;;;;6178477;23;19964;-88
2023/10/14 05:35:11;;;;;;;;;;;;;;;;;;6172179;23;19920;-88
2023/10/14 05:37:41;;;;;;;;;;;;;;;;;;6174117;23;19927;-88
2023/10/14 05:40:21;;;;;;;;;;;;;;;;;;6177417;23;20333;-88
2023/10/14 05:42:53;;;;;;;;;;;;;;;;;;6174420;23;19920;-88
2023/10/14 05:45:21;;;;;;;;;;;;;;;;;;6175703;23;20333;-88
2023/10/14 05:47:49;;;;;;;;;;;;;;;;;;6171657;23;19920;-88
2023/10/14 05:50:15;;;;;;;;;;;;;;;;;;6172027;23;20002;-88
2023/10/14 05:52:46;;;;;;;;;;;;;;;;;;6173489;23;19947;-88
2023/10/14 05:55:13;;;;;;;;;;;;;;;;;;6175564;23;19927;-88
2023/10/14 05:57:43;;;;;;;;;;;;;;;;;;6171346;23;19991;-87
2023/10/14 06:00:28;;;;;;;;;;;;;;;;;;6151636;23;20326;-88
2023/10/14 06:02:56;;;;;;;;;;;;;;;;;;6170398;23;19924;-88
2023/10/14 06:05:22;;;;;;;;;;;;;;;;;;6174127;23;19987;-88
2023/10/14 06:07:59;;;;;;;;;;;;;;;;;;6169529;23;20376;-88
2023/10/14 06:10:26;;;;;;;;;;;;;;;;;;6203555;23;19923;-88
2023/10/14 06:12:56;;;;;;;;;;;;;;;;;;6200462;23;19924;-88
2023/10/14 06:15:25;;;;;;;;;;;;;;;;;;6148280;23;19927;-87
2023/10/14 06:17:55;;;;;;;;;;;;;;;;;;6172761;23;19924;-87
2023/10/14 06:20:23;;;;;;;;;;;;;;;;;;6174510;23;19919;-88
2023/10/14 06:22:50;;;;;;;;;;;;;;;;;;6172055;23;19922;-87
2023/10/14 06:25:20;;;;;;;;;;;;;;;;;;6175217;23;20356;-88
2023/10/14 06:27:57;;;;;;;;;;;;;;;;;;6173615;23;20408;-88
2023/10/14 06:30:26;;;;;;;;;;;;;;;;;;6176924;23;19927;-88
2023/10/14 06:33:03;;;;;;;;;;;;;;;;;;6147165;23;19923;-88
2023/10/14 06:35:32;;;;;;;;;;;;;;;;;;6175991;23;19920;-87
2023/10/14 06:38:09;;;;;;;;;;;;;;;;;;6202605;23;19920;-87
2023/10/14 06:40:42;;;;;;;;;;;;;;;;;;6169861;23;19923;-86
2023/10/14 06:46:16;;;;;;;;;;;;;;;;;;6140110;23;19927;-87
2023/10/14 06:48:45;;;;;;;;;;;;;;;;;;6111733;23;19921;-87
2023/10/14 06:51:26;;;;;;;;;;;;;;;;;;6137148;23;19935;-87
2023/10/14 06:53:53;;;;;;;;;;;;;;;;;;6088863;23;20413;-88
2023/10/14 07:02:31;;;;;;;;;;;;;;;;;;6165729;23;19959;-89
2023/10/14 07:05:00;;;;;;;;;;;;;;;;;;6120381;23;19924;-89
2023/10/14 07:07:32;;;;;;;;;;;;;;;;;;6145181;23;19952;-90
2023/10/14 07:13:12;;;;;;;;;;;;;;;;;;6138457;23;19963;-90
2023/10/14 07:15:47;;;;;;;;;;;;;;;;;;6121665;23;19932;-89
2023/10/14 07:18:23;;;;;;;;;;;;;;;;;;6136277;23;19927;-89
2023/10/14 07:21:12;;;;;;;;;;;;;;;;;;6173025;23;20010;-89
2023/10/14 07:26:57;;;;;;;;;;;;;;;;;;6169882;23;20342;-90
2023/10/14 07:29:23;;;;;;;;;;;;;;;;;;6173560;23;19963;-89
2023/10/14 07:31:49;;;;;;;;;;;;;;;;;;6170439;23;19920;-90
2023/10/14 07:37:13;;;;;;;;;;;;;;;;;;6175601;23;19927;-89
2023/10/14 07:39:39;;;;;;;;;;;;;;;;;;6148870;23;19966;-90
2023/10/14 07:42:14;;;;;;;;;;;;;;;;;;6152362;23;19990;-90
2023/10/14 07:44:40;;;;;;;;;;;;;;;;;;6149285;23;19951;-89
2023/10/14 07:47:10;;;;;;;;;;;;;;;;;;6176943;23;20234;-90
2023/10/14 07:49:38;;;;;;;;;;;;;;;;;;6173040;23;19962;-89
2023/10/14 07:52:25;;;;;;;;;;;;;;;;;;;;;
2023/10/14 07:55:22;;;;;;;;;;;;;;;;;;6202863;23;19930;-86
2023/10/14 07:57:49;;;;;;;;;;;;;;;;;;6172685;23;20296;-87
2023/10/14 08:00:17;;;;;;;;;;;;;;;;;;6175447;23;19990;-86
2023/10/14 08:02:43;;;;;;;;;;;;;;;;;;6148037;23;19920;-86
2023/10/14 08:05:16;;;;;;;;;;;;;;;;;;6203781;23;19919;-86
2023/10/14 08:11:04;;;;;;;;;;;;;;;;;;6120758;23;20361;-86
2023/10/14 08:13:33;;;;;;;;;;;;;;;;;;6087110;23;19929;-86
2023/10/14 08:22:14;;;;;;;;;;;;;;;;;;6108539;23;19986;-86
2023/10/14 08:24:42;;;;;;;;;;;;;;;;;;6084458;23;19932;-86
2023/10/14 08:27:12;;;;;;;;;;;;;;;;;;6088757;23;19957;-86
2023/10/14 08:32:54;;;;;;;;;;;;;;;;;;6008428;23;19933;-87
2023/10/14 08:35:29;;;;;;;;;;;;;;;;;;6083768;23;19917;-86
2023/10/14 08:37:57;;;;;;;;;;;;;;;;;;6059820;23;19960;-86
2023/10/14 08:40:26;;;;;;;;;;;;;;;;;;6085048;23;19948;-86
2023/10/14 08:42:55;;;;;;;;;;;;;;;;;;6083692;23;20109;-86
2023/10/14 08:45:21;;;;;;;;;;;;;;;;;;6086070;23;19947;-86
2023/10/14 08:47:50;;;;;;;;;;;;;;;;;;6129902;23;19920;-86
2023/10/14 08:50:21;;;;;;;;;;;;;;;;;;6143943;23;19920;-86
2023/10/14 08:52:51;;;;;;;;;;;;;;;;;;6139767;23;19920;-86
2023/10/14 08:55:21;;;;;;;;;;;;;;;;;;6130518;23;19932;-86
2023/10/14 08:57:47;;;;;;;;;;;;;;;;;;6156149;23;19987;-86
2023/10/14 09:00:19;;;;;;;;;;;;;;;;;;6119871;23;19927;-86
2023/10/14 09:02:51;;;;;;;;;;;;;;;;;;6168223;23;19920;-86
2023/10/14 09:05:18;;;;;;;;;;;;;;;;;;6146807;23;19927;-85
2023/10/14 09:07:45;;;;;;;;;;;;;;;;;;6143157;23;19916;-86
2023/10/14 09:10:11;;;;;;;;;;;;;;;;;;6145604;23;19995;-86
2023/10/14 09:12:39;;;;;;;;;;;;;;;;;;6144013;23;19927;-86
2023/10/14 09:15:21;;;;;;;;;;;;;;;;;;6171400;23;19990;-86
2023/10/14 09:17:55;;;;;;;;;;;;;;;;;;6143806;23;20603;-86
2023/10/14 09:20:22;;;;;;;;;;;;;;;;;;6144744;23;19924;-86
2023/10/14 09:22:49;;;;;;;;;;;;;;;;;;6146101;23;19920;-86
2023/10/14 09:25:16;;;;;;;;;;;;;;;;;;6175309;23;19920;-86
2023/10/14 09:27:43;;;;;;;;;;;;;;;;;;6146408;23;20344;-86
2023/10/14 09:30:11;;;;;;;;;;;;;;;;;;6146867;23;20337;-86
2023/10/14 09:32:39;;;;;;;;;;;;;;;;;;6143781;23;20306;-86
2023/10/14 09:35:06;;;;;;;;;;;;;;;;;;6146057;23;19927;-86
2023/10/14 09:37:32;;;;;;;;;;;;;;;;;;6172894;23;19920;-86
2023/10/14 09:39:59;;;;;;;;;;;;;;;;;;6146531;23;19969;-86
2023/10/14 09:42:26;;;;;;;;;;;;;;;;;;6174774;23;20329;-86
2023/10/14 09:45:13;;;;;;;;;;;;;;;;;;6146706;23;19939;-86
2023/10/14 09:47:45;;;;;;;;;;;;;;;;;;6167769;23;19927;-87
2023/10/14 09:50:13;;;;;;;;;;;;;;;;;;6145212;23;19951;-85
2023/10/14 09:52:47;;;;;;;;;;;;;;;;;;6140380;23;19921;-86
2023/10/14 09:55:15;;;;;;;;;;;;;;;;;;6182821;23;19920;-87
2023/10/14 09:57:48;;;;;;;;;;;;;;;;;;6172998;23;19919;-87
2023/10/14 10:00:19;;;;;;;;;;;;;;;;;;6201358;23;19919;-87
2023/10/14 10:02:46;;;;;;;;;;;;;;;;;;6145760;23;19977;-87
2023/10/14 10:05:12;;;;;;;;;;;;;;;;;;6172001;23;19920;-88
2023/10/14 10:07:43;;;;;;;;;;;;;;;;;;6168125;23;19920;-88
2023/10/14 10:10:13;;;;;;;;;;;;;;;;;;6147168;23;19931;-88
2023/10/14 10:12:41;;;;;;;;;;;;;;;;;;6196748;23;20007;-88
2023/10/14 10:15:08;;;;;;;;;;;;;;;;;;6144367;23;19920;-88
2023/10/14 10:17:36;;;;;;;;;;;;;;;;;;6147369;23;19967;-89
2023/10/14 10:20:16;;;;;;;;;;;;;;;;;;6204339;23;20183;-89
2023/10/14 10:22:50;;;;;;;;;;;;;;;;;;6198088;23;19920;-89
2023/10/14 10:25:18;;;;;;;;;;;;;;;;;;6175619;23;19920;-88
2023/10/14 10:27:49;;;;;;;;;;;;;;;;;;6141093;23;20245;-89
2023/10/14 10:30:15;;;;;;;;;;;;;;;;;;6109553;23;19923;-89
2023/10/14 10:32:46;;;;;;;;;;;;;;;;;;6134104;23;19920;-89
2023/10/14 10:35:13;;;;;;;;;;;;;;;;;;6136776;23;19920;-89
2023/10/14 10:37:39;;;;;;;;;;;;;;;;;;6109569;23;19948;-89
2023/10/14 10:40:05;;;;;;;;;;;;;;;;;;6137307;23;19964;-90
2023/10/14 10:42:33;;;;;;;;;;;;;;;;;;6110405;23;19920;-88
2023/10/14 10:45:04;;;;;;;;;;;;;;;;;;6136472;23;19921;-88
2023/10/14 10:47:35;;;;;;;;;;;;;;;;;;6109731;23;20486;-88
2023/10/14 10:50:02;;;;;;;;;;;;;;;;;;6114410;23;20114;-89
2023/10/14 10:52:36;;;;;;;;;;;;;;;;;;6112592;23;20000;-88
2023/10/14 10:55:24;;;;;;;;;;;;;;;;;;6091565;23;20274;-89
2023/10/14 10:57:51;;;;;;;;;;;;;;;;;;6103686;23;19965;-89
2023/10/14 11:00:18;;;;;;;;;;;;;;;;;;6112284;23;20655;-88
2023/10/14 11:02:50;;;;;;;;;;;;;;;;;;6140774;23;19923;-89
2023/10/14 11:05:17;;;;;;;;;;;;;;;;;;6119073;23;19920;-88
2023/10/14 11:07:47;;;;;;;;;;;;;;;;;;6162500;23;19929;-88
2023/10/14 11:10:14;;;;;;;;;;;;;;;;;;6118025;23;19927;-88
2023/10/14 11:12:40;;;;;;;;;;;;;;;;;;6164398;23;19924;-88
2023/10/14 11:15:14;;;;;;;;;;;;;;;;;;6147975;23;20253;-88
2023/10/14 11:17:39;;;;;;;;;;;;;;;;;;6119136;23;19920;-88
2023/10/14 11:20:07;;;;;;;;;;;;;;;;;;6119308;23;19920;-87
2023/10/14 11:22:35;;;;;;;;;;;;;;;;;;6172427;23;19966;-87
2023/10/14 11:25:01;;;;;;;;;;;;;;;;;;6119485;23;19971;-88
2023/10/14 11:27:30;;;;;;;;;;;;;;;;;;6115848;23;19923;-87
2023/10/14 11:29:59;;;;;;;;;;;;;;;;;;6172225;23;19923;-88
2023/10/14 11:32:25;;;;;;;;;;;;;;;;;;6118690;23;19920;-88
2023/10/14 11:35:03;;;;;;;;;;;;;;;;;;6145084;23;20257;-87
2023/10/14 11:37:36;;;;;;;;;;;;;;;;;;6143451;23;20096;-88
2023/10/14 11:40:09;;;;;;;;;;;;;;;;;;6146092;23;19987;-87
2023/10/14 11:42:46;;;;;;;;;;;;;;;;;;6146598;23;20014;-92
2023/10/14 11:45:13;;;;;;;;;;;;;;;;;;6206123;23;20802;-96
2023/10/14 11:47:44;;;;;;;;;;;;;;;;;;6180987;23;19920;-94
2023/10/14 11:50:17;;;;;;;;;;;;;;;;;;6181688;23;19922;-93
2023/10/14 11:52:43;;;;;;;;;;;;;;;;;;6177686;23;19923;-93
2023/10/14 11:55:14;;;;;;;;;;;;;;;;;;6177897;23;20261;-91
2023/10/14 11:57:41;;;;;;;;;;;;;;;;;;6171707;23;19919;-92
2023/10/14 12:13:14;;;;;;;;;;;;;;;;;;6171935;23;19967;-87
2023/10/14 12:15:43;;;;;;;;;;;;;;;;;;6145980;23;19923;-87
2023/10/14 12:18:34;;;;;;;;;;;;;;;;;;;;;
2023/10/14 12:25:37;;;;;;;;;;;;;;;;;;;;;
2023/10/14 12:28:00;;;;;;;;;;;;;;;;;;6036833;23;19924;-87
2023/10/14 13:08:31;;;;;;;;;;;;;;;;;;6164217;23;19920;-91
2023/10/14 13:11:24;;;;;;;;;;;;;;;;;;;;;
2023/10/14 13:14:06;;;;;;;;;;;;;;;;;;6214270;23;19923;-90
2023/10/14 13:16:32;;;;;;;;;;;;;;;;;;6149803;23;19927;-91
2023/10/14 13:22:09;;;;;;;;;;;;;;;;;;6175352;23;19916;-90
2023/10/14 13:24:35;;;;;;;;;;;;;;;;;;6145614;23;19920;-90
2023/10/14 13:27:01;;;;;;;;;;;;;;;;;;6163212;23;19988;-90
2023/10/14 13:29:27;;;;;;;;;;;;;;;;;;6183262;23;19920;-92
2023/10/14 13:31:53;;;;;;;;;;;;;;;;;;6175555;23;20379;-91
2023/10/14 13:34:22;;;;;;;;;;;;;;;;;;6180539;23;19924;-91
2023/10/14 13:36:48;;;;;;;;;;;;;;;;;;6174832;23;19982;-92
2023/10/14 13:39:18;;;;;;;;;;;;;;;;;;6179387;23;19916;-91
2023/10/14 13:41:48;;;;;;;;;;;;;;;;;;6154033;23;19954;-91
2023/10/14 13:44:15;;;;;;;;;;;;;;;;;;6155627;23;19916;-91
2023/10/14 13:46:41;;;;;;;;;;;;;;;;;;6152968;23;20402;-90
2023/10/14 13:49:07;;;;;;;;;;;;;;;;;;6154954;23;19948;-91
2023/10/14 13:51:36;;;;;;;;;;;;;;;;;;6180441;23;19970;-91
2023/10/14 13:54:02;;;;;;;;;;;;;;;;;;6177760;23;19919;-91
2023/10/14 13:56:28;;;;;;;;;;;;;;;;;;6155648;23;20349;-91
2023/10/14 13:58:54;;;;;;;;;;;;;;;;;;6174876;23;20170;-91
2023/10/14 14:01:23;;;;;;;;;;;;;;;;;;6155058;23;20237;-91
2023/10/14 14:04:01;;;;;;;;;;;;;;;;;;6151631;23;19951;-91
2023/10/14 14:06:30;;;;;;;;;;;;;;;;;;6179964;23;19924;-95
2023/10/14 14:08:56;;;;;;;;;;;;;;;;;;6151623;23;19920;-92
2023/10/14 14:11:23;;;;;;;;;;;;;;;;;;6176979;23;19975;-91
2023/10/14 14:13:49;;;;;;;;;;;;;;;;;;6174336;23;19920;-91
2023/10/14 14:16:18;;;;;;;;;;;;;;;;;;6153719;23;19959;-91
2023/10/14 14:18:48;;;;;;;;;;;;;;;;;;6150999;23;20351;-92
2023/10/14 14:21:14;;;;;;;;;;;;;;;;;;6180258;23;19916;-90
2023/10/14 14:23:40;;;;;;;;;;;;;;;;;;6174758;23;19935;-91
2023/10/14 14:26:07;;;;;;;;;;;;;;;;;;6151581;23;19920;-91
2023/10/14 14:28:37;;;;;;;;;;;;;;;;;;6151144;23;19951;-91
2023/10/14 14:31:03;;;;;;;;;;;;;;;;;;6177696;23;19932;-91
2023/10/14 14:33:29;;;;;;;;;;;;;;;;;;6174869;23;19930;-91
2023/10/14 14:35:55;;;;;;;;;;;;;;;;;;6172920;23;19919;-91
2023/10/14 14:38:23;;;;;;;;;;;;;;;;;;6173521;23;19923;-91
2023/10/14 14:40:50;;;;;;;;;;;;;;;;;;6146846;23;19920;-90
2023/10/14 14:43:16;;;;;;;;;;;;;;;;;;6151656;23;19970;-90
2023/10/14 14:45:44;;;;;;;;;;;;;;;;;;6201227;23;19916;-91
2023/10/14 14:48:11;;;;;;;;;;;;;;;;;;6198791;23;19920;-90
2023/10/14 14:50:37;;;;;;;;;;;;;;;;;;6146569;23;20271;-91
2023/10/14 14:53:06;;;;;;;;;;;;;;;;;;6147493;23;19924;-90
2023/10/14 14:55:41;;;;;;;;;;;;;;;;;;6147751;23;19926;-91
2023/10/14 14:58:19;;;;;;;;;;;;;;;;;;6150322;23;20340;-90
2023/10/14 15:00:45;;;;;;;;;;;;;;;;;;6166716;23;19991;-91
2023/10/14 15:03:13;;;;;;;;;;;;;;;;;;6171477;23;20009;-91
2023/10/14 15:05:49;;;;;;;;;;;;;;;;;;6145177;23;20019;-91
2023/10/14 15:08:21;;;;;;;;;;;;;;;;;;6152091;23;19916;-91
2023/10/14 15:10:48;;;;;;;;;;;;;;;;;;6147114;23;19977;-91
2023/10/14 15:13:17;;;;;;;;;;;;;;;;;;6146808;23;19970;-91
2023/10/14 15:15:43;;;;;;;;;;;;;;;;;;6168786;23;19919;-91
2023/10/14 15:18:11;;;;;;;;;;;;;;;;;;6173584;23;20351;-91
2023/10/14 15:20:46;;;;;;;;;;;;;;;;;;6169997;23;20045;-92
2023/10/14 15:23:14;;;;;;;;;;;;;;;;;;6151361;23;19991;-91
2023/10/14 15:25:40;;;;;;;;;;;;;;;;;;6148846;23;19920;-92
2023/10/14 15:28:11;;;;;;;;;;;;;;;;;;6172018;23;20242;-91
2023/10/14 15:30:37;;;;;;;;;;;;;;;;;;6143650;23;19916;-90
2023/10/14 15:33:05;;;;;;;;;;;;;;;;;;6144574;23;19919;-91
2023/10/14 15:35:32;;;;;;;;;;;;;;;;;;6144781;23;19947;-92
2023/10/14 15:38:01;;;;;;;;;;;;;;;;;;6166538;23;19920;-91
2023/10/14 15:40:28;;;;;;;;;;;;;;;;;;6189732;23;19927;-91
2023/10/14 15:42:54;;;;;;;;;;;;;;;;;;6138683;23;20744;-91
2023/10/14 15:45:25;;;;;;;;;;;;;;;;;;6193731;23;19919;-91
2023/10/14 15:47:51;;;;;;;;;;;;;;;;;;6139691;23;19924;-91
2023/10/14 15:50:22;;;;;;;;;;;;;;;;;;6164974;23;19920;-92
2023/10/14 15:52:47;;;;;;;;;;;;;;;;;;6166696;23;19919;-91
2023/10/14 15:55:14;;;;;;;;;;;;;;;;;;6155102;23;20020;-91
2023/10/14 15:57:43;;;;;;;;;;;;;;;;;;6164836;23;20024;-91
2023/10/14 16:00:14;;;;;;;;;;;;;;;;;;6141286;23;19924;-92
2023/10/14 16:02:41;;;;;;;;;;;;;;;;;;6162782;23;19919;-91
2023/10/14 16:05:09;;;;;;;;;;;;;;;;;;6139069;23;20332;-91
2023/10/14 16:07:38;;;;;;;;;;;;;;;;;;6163251;23;19920;-91
2023/10/14 16:10:05;;;;;;;;;;;;;;;;;;6145065;23;19927;-90
2023/10/14 16:12:34;;;;;;;;;;;;;;;;;;6140984;23;19930;-91
2023/10/14 16:15:00;;;;;;;;;;;;;;;;;;6143452;23;19924;-90
2023/10/14 16:17:26;;;;;;;;;;;;;;;;;;6139434;23;20301;-91
2023/10/14 16:19:53;;;;;;;;;;;;;;;;;;6134953;23;19920;-90
2023/10/14 16:22:19;;;;;;;;;;;;;;;;;;6166093;23;19975;-90
2023/10/14 16:24:45;;;;;;;;;;;;;;;;;;6140511;23;19990;-90
2023/10/14 16:27:22;;;;;;;;;;;;;;;;;;6166557;23;19935;-90
2023/10/14 16:29:57;;;;;;;;;;;;;;;;;;6141776;23;19924;-90
2023/10/14 16:38:23;;;;;;;;;;;;;;;;;;6073021;23;20330;-90
2023/10/14 16:41:10;;;;;;;;;;;;;;;;;;6101397;23;20298;-90
2023/10/14 16:43:39;;;;;;;;;;;;;;;;;;6073102;23;19976;-91
2023/10/14 16:49:14;;;;;;;;;;;;;;;;;;6079147;23;20342;-90
2023/10/14 16:52:13;;;;;;;;;;;;;;;;;;6105968;23;20243;-90
2023/10/14 16:54:50;;;;;;;;;;;;;;;;;;;;;
2023/10/14 16:57:47;;;;;;;;;;;;;;;;;;6110711;23;19928;-90
2023/10/14 17:00:22;;;;;;;;;;;;;;;;;;6127465;23;19919;-91
2023/10/14 17:02:50;;;;;;;;;;;;;;;;;;6160560;23;20052;-90
2023/10/14 17:05:16;;;;;;;;;;;;;;;;;;6147416;23;19920;-90
2023/10/14 17:07:42;;;;;;;;;;;;;;;;;;6142143;23;20345;-91
2023/10/14 17:10:08;;;;;;;;;;;;;;;;;;6141713;23;19935;-90
2023/10/14 17:12:37;;;;;;;;;;;;;;;;;;6143065;23;20262;-90
2023/10/14 17:15:05;;;;;;;;;;;;;;;;;;6145734;23;19931;-90
2023/10/14 17:17:33;;;;;;;;;;;;;;;;;;6146867;23;19935;-91
2023/10/14 17:20:00;;;;;;;;;;;;;;;;;;6168545;23;20324;-90
2023/10/14 17:22:27;;;;;;;;;;;;;;;;;;6143920;23;20499;-90
2023/10/14 17:24:55;;;;;;;;;;;;;;;;;;6141720;23;19927;-91
2023/10/14 17:27:21;;;;;;;;;;;;;;;;;;6137929;23;20459;-90
2023/10/14 17:30:03;;;;;;;;;;;;;;;;;;;;;
2023/10/14 17:35:22;;;;;;;;;;;;;;;;;;6156321;23;20280;-90
2023/10/14 17:38:19;;;;;;;;;;;;;;;;;;6168926;23;20265;-91
2023/10/14 17:41:07;;;;;;;;;;;;;;;;;;;;;
2023/10/14 17:43:44;;;;;;;;;;;;;;;;;;6166784;23;19994;-91
2023/10/14 17:46:36;;;;;;;;;;;;;;;;;;;;;
2023/10/14 17:49:05;;;;;;;;;;;;;;;;;;6153699;23;19919;-90
2023/10/14 17:51:53;;;;;;;;;;;;;;;;;;6148122;23;20307;-90
2023/10/14 17:54:19;;;;;;;;;;;;;;;;;;6171659;23;19923;-90
2023/10/14 17:56:48;;;;;;;;;;;;;;;;;;6143243;23;19920;-90
2023/10/14 17:59:21;;;;;;;;;;;;;;;;;;6144060;23;20366;-90
2023/10/14 18:11:47;;;;;;;;;;;;;;;;;;;;;
2023/10/14 18:15:05;;;;;;;;;;;;;;;;;;;;;
2023/10/14 18:17:50;;;;;;;;;;;;;;;;;;;;;
2023/10/14 18:23:30;;;;;;;;;;;;;;;;;;6079454;23;20285;-90
2023/10/14 18:41:27;;;;;;;;;;;;;;;;;;;;;
2023/10/14 18:50:46;;;;;;;;;;;;;;;;;;6068305;23;19992;-89
2023/10/14 18:54:06;;;;;;;;;;;;;;;;;;5988788;23;20108;-90
2023/10/14 19:00:04;;;;;;;;;;;;;;;;;;6051618;23;20132;-90
2023/10/14 19:25:45;;;;;;;;;;;;;;;;;;5827660;24;20284;-89
2023/10/14 19:28:26;;;;;;;;;;;;;;;;;;5874385;24;20382;-90
2023/10/14 19:30:52;;;;;;;;;;;;;;;;;;5911582;24;20280;-90
2023/10/14 19:33:21;;;;;;;;;;;;;;;;;;5939763;24;20290;-90
2023/10/14 19:35:51;;;;;;;;;;;;;;;;;;6001857;23;19927;-89
2023/10/14 19:38:17;;;;;;;;;;;;;;;;;;6047863;23;20020;-89
2023/10/14 19:40:48;;;;;;;;;;;;;;;;;;6065036;23;19949;-89
2023/10/14 19:43:14;;;;;;;;;;;;;;;;;;6141209;23;19923;-89
2023/10/14 19:45:42;;;;;;;;;;;;;;;;;;6142141;23;19931;-89
2023/10/14 19:48:08;;;;;;;;;;;;;;;;;;6144851;23;19920;-90
2023/10/14 19:50:35;;;;;;;;;;;;;;;;;;6143642;23;19916;-90
2023/10/14 19:53:02;;;;;;;;;;;;;;;;;;6146295;23;20008;-90
2023/10/14 19:55:40;;;;;;;;;;;;;;;;;;6146220;23;19920;-90
2023/10/14 19:58:17;;;;;;;;;;;;;;;;;;6145050;23;20018;-89
2023/10/14 20:00:46;;;;;;;;;;;;;;;;;;6165436;23;20018;-89
2023/10/14 20:03:12;;;;;;;;;;;;;;;;;;6144934;23;19924;-89
2023/10/14 20:05:41;;;;;;;;;;;;;;;;;;6141084;23;19920;-90
2023/10/14 20:08:23;;;;;;;;;;;;;;;;;;;;;
2023/10/14 20:10:51;;;;;;;;;;;;;;;;;;6159813;23;20276;-89
2023/10/14 20:13:22;;;;;;;;;;;;;;;;;;6140743;23;19924;-90
2023/10/14 20:15:52;;;;;;;;;;;;;;;;;;6139219;23;19927;-90